This is the latest recevied weather packets stored in our database for station/object S56IAR-13. If no packets are shown the sender has not sent any weather packets the latest 10 day(s).
| Time | Temp. | Humidity | Pressure | Rain* | Wind** | Luminosity | Snow |
|---|---|---|---|---|---|---|---|
| 1777884605 | 20° C | 53% | 964.3 hPa | 0 mm | - | 626 W/m² | - |
| 1777884433 | 20° C | 54% | 964.2 hPa | 0 mm | - | 620 W/m² | - |
| 1777879504 | 13.89° C | 73% | 964.5 hPa | 0 mm | - | 503 W/m² | - |
| 1777879204 | 13.33° C | 74% | 964.5 hPa | 0 mm | - | 279 W/m² | - |
| 1777874703 | 8.33° C | 96% | 964.5 hPa | 0 mm | - | 51 W/m² | - |
| 1777872434 | 6.67° C | 97% | 964.4 hPa | 0 mm | - | 46 W/m² | - |
| 1777871705 | 6.67° C | 97% | 964.3 hPa | 0 mm | - | 34 W/m² | - |
| 1777866604 | 6.11° C | 97% | 964.4 hPa | 0 mm | - | 3 W/m² | - |
| 1777864504 | 6.11° C | 97% | 964.3 hPa | 0 mm | - | 0 W/m² | - |
| 1777863904 | 6.11° C | 97% | 964.3 hPa | 0 mm | - | 0 W/m² | - |
| 1777860905 | 6.11° C | 97% | 964.5 hPa | 0 mm | - | 0 W/m² | - |
| 1777860304 | 6.67° C | 96% | 964.4 hPa | 0 mm | - | 0 W/m² | - |
| 1777859705 | 6.67° C | 96% | 964.3 hPa | 0 mm | - | 0 W/m² | - |
| 1777858203 | 6.67° C | 96% | 964.3 hPa | 0 mm | - | 0 W/m² | - |
| 1777857136 | 6.67° C | 96% | 964.4 hPa | 0 mm | - | 0 W/m² | - |
| 1777855635 | 7.22° C | 95% | 964.5 hPa | 0 mm | - | 0 W/m² | - |
| 1777852203 | 7.22° C | 95% | 964.4 hPa | 0 mm | - | 0 W/m² | - |
| 1777851603 | 7.22° C | 94% | 964.7 hPa | 0 mm | - | 0 W/m² | - |
| 1777849505 | 7.22° C | 94% | 964.7 hPa | 0 mm | - | 0 W/m² | - |
| 1777847705 | 7.22° C | 93% | 964.6 hPa | 0 mm | - | 0 W/m² | - |
| 1777847533 | 7.22° C | 94% | 964.8 hPa | 0 mm | - | 0 W/m² | - |
| 1777844704 | 7.78° C | 92% | 964.4 hPa | 0 mm | - | 0 W/m² | - |
| 1777843033 | 7.78° C | 90% | 964.3 hPa | 0 mm | - | 0 W/m² | - |
| 1777841104 | 8.89° C | 88% | 964.1 hPa | 0 mm | - | 0 W/m² | - |
| 1777840205 | 8.89° C | 87% | 964.1 hPa | 0 mm | - | 0 W/m² | - |
* Rain latest hour (hover to see other rain measurements)
** Current wind speed in m/s (hover to see current wind gust speed)